Time;durP1;ratioP1;P1;durP2;ratioP2;P2;SDS_P1;SDS_P2;PMS_P1;PMS_P2;Temp;Humidity;BMP_temperature;BMP_pressure;BME280_temperature;BME280_humidity;BME280_pressure;Samples;Min_cycle;Max_cycle;Signal;HPM_P1;HPM_P2
2023/06/20 00:02:00;;;;;;;5.40;1.63;;;;;;;20.55;58.91;99924.28;10293950;28;20537;-70
2023/06/20 00:07:01;;;;;;;4.45;1.50;;;;;;;20.56;59.15;99927.78;10293771;28;20078;-70
2023/06/20 00:12:02;;;;;;;4.90;1.63;;;;;;;20.32;59.55;99906.31;10292765;28;20125;-70
2023/06/20 00:17:05;;;;;;;9.18;1.60;;;;;;;20.30;59.70;99901.13;10293863;28;20043;-70
2023/06/20 00:22:06;;;;;;;6.07;2.00;;;;;;;20.19;59.69;99890.41;10292759;28;20414;-69
2023/06/20 00:27:07;;;;;;;6.88;1.90;;;;;;;20.13;60.79;99894.88;10292931;28;20278;-70
2023/06/20 00:32:07;;;;;;;7.13;2.10;;;;;;;20.23;61.11;99910.47;10292268;28;20090;-70
2023/06/20 00:37:08;;;;;;;7.13;1.90;;;;;;;20.10;60.83;99894.56;10292937;28;20071;-70
2023/06/20 00:42:20;;;;;;;11.30;2.28;;;;;;;20.05;62.75;99900.69;10291862;28;20058;-70
2023/06/20 00:47:21;;;;;;;10.27;2.20;;;;;;;20.12;61.79;99935.59;10291669;28;20050;-70
2023/06/20 00:52:22;;;;;;;4.97;1.52;;;;;;;19.96;62.16;99919.13;10291605;28;20065;-69
2023/06/20 00:57:23;;;;;;;3.53;1.58;;;;;;;19.84;62.19;99921.84;10292193;28;20034;-70
2023/06/20 01:02:24;;;;;;;4.65;1.77;;;;;;;19.90;62.63;99928.19;10292478;28;20049;-70
2023/06/20 01:07:57;;;;;;;9.80;1.67;;;;;;;19.50;64.06;99864.25;10291801;28;20400;-70
2023/06/20 01:13:17;;;;;;;3.38;1.58;;;;;;;19.93;64.12;99927.69;10290825;28;20085;-72
2023/06/20 01:18:44;;;;;;;16.08;1.83;;;;;;;19.96;64.41;99935.31;10291755;28;20049;-70
2023/06/20 01:23:56;;;;;;;7.10;1.73;;;;;;;19.88;64.22;99934.88;10290990;28;20046;-70
2023/06/20 01:29:15;;;;;;;11.63;2.25;;;;;;;19.81;64.43;99916.94;10287440;28;20051;-71
2023/06/20 01:34:20;;;;;;;6.30;1.95;;;;;;;19.95;64.15;99940.91;10284674;28;20503;-71
2023/06/20 01:39:41;;;;;;;10.50;2.00;;;;;;;19.98;64.74;99948.53;10285537;28;20093;-70
2023/06/20 01:44:45;;;;;;;10.73;2.03;;;;;;;19.94;64.47;99967.06;10292863;28;20543;-71
2023/06/20 01:49:51;;;;;;;16.70;3.45;;;;;;;19.83;64.94;99943.66;10299127;28;20043;-70
2023/06/20 01:54:53;;;;;;;14.00;4.22;;;;;;;19.91;64.91;99953.25;10298563;28;20070;-70
2023/06/20 01:59:55;;;;;;;17.48;3.65;;;;;;;19.61;65.38;99930.78;10299256;28;20047;-70
2023/06/20 02:04:58;;;;;;;11.10;2.70;;;;;;;19.77;65.96;99967.00;10299060;28;20038;-68
2023/06/20 02:10:00;;;;;;;7.18;2.30;;;;;;;19.47;66.53;99926.69;10297705;28;20049;-70
2023/06/20 02:15:01;;;;;;;7.10;1.90;;;;;;;19.62;67.26;99963.94;10298293;28;20057;-71
2023/06/20 02:20:04;;;;;;;7.30;1.70;;;;;;;19.50;67.54;99949.66;10297335;28;20057;-70
2023/06/20 02:25:07;;;;;;;4.55;1.52;;;;;;;19.60;68.20;99974.97;10297644;28;20050;-68
2023/06/20 02:30:10;;;;;;;3.60;1.77;;;;;;;19.26;68.14;99911.16;10296974;28;20042;-69
2023/06/20 02:35:13;;;;;;;22.67;3.60;;;;;;;19.51;67.94;99940.53;10297279;28;20454;-70
2023/06/20 02:40:14;;;;;;;10.82;1.70;;;;;;;19.70;67.52;99955.53;10296965;28;20431;-70
2023/06/20 02:45:15;;;;;;;12.02;3.85;;;;;;;19.87;67.79;99968.28;10295347;28;20061;-70
2023/06/20 02:50:24;;;;;;;8.55;3.20;;;;;;;19.98;68.21;99981.72;10295493;28;20059;-70
2023/06/20 02:55:36;;;;;;;7.00;2.05;;;;;;;20.09;67.47;99968.44;10294964;28;20458;-70
2023/06/20 03:00:38;;;;;;;8.75;2.25;;;;;;;20.04;66.41;99940.31;10295882;28;20046;-69
2023/06/20 03:05:43;;;;;;;16.08;2.75;;;;;;;20.10;66.89;99964.66;10296173;28;20051;-70
2023/06/20 03:10:47;;;;;;;7.53;1.80;;;;;;;20.17;65.77;99978.84;10296198;28;20051;-70
2023/06/20 03:15:51;;;;;;;9.93;2.05;;;;;;;20.33;66.10;99991.56;10295784;28;20093;-69
2023/06/20 03:20:52;;;;;;;6.10;1.77;;;;;;;20.28;65.48;99977.97;10295195;28;20074;-69
2023/06/20 03:25:53;;;;;;;18.27;2.28;;;;;;;20.21;65.91;99953.03;10295748;28;20058;-70
2023/06/20 03:30:53;;;;;;;11.00;2.00;;;;;;;20.48;65.49;99991.84;10294537;28;20564;-70
2023/06/20 03:35:54;;;;;;;6.07;1.52;;;;;;;20.59;64.50;100000.97;10293502;28;20406;-69
2023/06/20 03:40:55;;;;;;;5.95;1.70;;;;;;;20.73;64.70;99996.09;10295356;28;20591;-69
2023/06/20 03:45:56;;;;;;;9.30;1.85;;;;;;;20.81;64.65;99997.56;10294379;28;20070;-70
2023/06/20 03:50:56;;;;;;;7.63;1.45;;;;;;;20.87;63.39;100013.63;10287730;28;20049;-72
2023/06/20 03:55:57;;;;;;;7.63;1.90;;;;;;;20.83;62.98;100012.47;10288017;28;20498;-69
2023/06/20 04:00:58;;;;;;;5.55;1.67;;;;;;;20.76;63.01;100001.03;10287810;28;20039;-69
2023/06/20 04:06:01;;;;;;;6.93;1.45;;;;;;;21.00;63.08;100025.16;10288666;28;20194;-69
2023/06/20 04:11:01;;;;;;;8.77;1.70;;;;;;;21.03;62.49;100032.78;10286210;28;20042;-69
2023/06/20 04:16:02;;;;;;;6.65;1.70;;;;;;;20.94;62.84;100021.59;10287861;28;20494;-70
2023/06/20 04:21:03;;;;;;;6.43;1.73;;;;;;;21.08;62.26;100032.88;10284701;28;20517;-72
2023/06/20 04:26:04;;;;;;;5.97;1.42;;;;;;;20.83;62.03;99977.38;10289959;28;20064;-69
2023/06/20 04:31:05;;;;;;;18.02;1.90;;;;;;;21.22;61.82;100041.47;10291288;28;20082;-69
2023/06/20 04:36:05;;;;;;;3.92;1.52;;;;;;;21.21;60.67;100043.38;10292874;28;20031;-69
2023/06/20 04:41:06;;;;;;;6.45;1.60;;;;;;;21.30;60.70;100014.03;10290445;28;20050;-68
2023/06/20 04:46:09;;;;;;;6.00;1.80;;;;;;;21.77;59.40;100046.09;10291872;28;20062;-69
2023/06/20 04:51:10;;;;;;;4.65;2.10;;;;;;;21.70;57.77;100003.03;10290216;28;20422;-69
2023/06/20 04:56:16;;;;;;;4.40;2.78;;;;;;;22.23;58.16;100046.75;10291990;28;20097;-69
2023/06/20 05:01:16;;;;;;;9.35;3.95;;;;;;;22.25;57.45;100033.78;10292560;28;20070;-69
2023/06/20 05:06:17;;;;;;;3.40;1.90;;;;;;;22.24;56.20;100064.63;10291930;28;20047;-67
2023/06/20 05:11:18;;;;;;;2.90;1.55;;;;;;;21.79;55.58;99982.59;10291037;28;20046;-69
2023/06/20 05:16:19;;;;;;;7.00;1.85;;;;;;;22.28;55.18;100044.09;10280795;28;20046;-68
2023/06/20 05:21:20;;;;;;;4.28;1.70;;;;;;;22.04;54.85;99979.38;10284961;28;20049;-68
2023/06/20 05:26:20;;;;;;;6.43;1.90;;;;;;;22.70;54.81;100046.19;10251870;28;20061;-68
2023/06/20 05:31:24;;;;;;;5.65;1.85;;;;;;;22.30;54.29;99980.53;10251405;28;20055;-68
2023/06/20 05:36:25;;;;;;;3.50;1.55;;;;;;;22.64;54.87;100042.59;10250750;28;20050;-70
2023/06/20 05:41:26;;;;;;;5.05;1.70;;;;;;;22.73;54.68;100038.34;10251180;28;20039;-69
2023/06/20 05:46:27;;;;;;;3.35;1.70;;;;;;;22.76;54.67;100045.16;10251265;28;20153;-69
2023/06/20 05:51:29;;;;;;;5.97;1.70;;;;;;;22.54;54.32;100012.72;10287505;28;20055;-69
2023/06/20 05:56:30;;;;;;;9.60;1.88;;;;;;;22.68;53.85;100037.50;10290944;28;20075;-70
2023/06/20 06:01:30;;;;;;;5.47;1.58;;;;;;;23.02;53.60;100046.25;10290418;28;20124;-67
2023/06/20 06:06:31;;;;;;;2.20;1.30;;;;;;;23.52;52.69;100039.59;10290916;28;20046;-68
2023/06/20 06:11:32;;;;;;;5.47;1.60;;;;;;;23.83;52.02;100043.34;10289920;28;20046;-69
2023/06/20 06:16:33;;;;;;;11.15;1.77;;;;;;;24.13;51.07;100037.22;10290597;28;20125;-68
2023/06/20 06:21:33;;;;;;;4.28;1.63;;;;;;;24.31;50.26;100025.09;10290479;28;20105;-68
2023/06/20 06:26:35;;;;;;;7.30;1.95;;;;;;;24.38;50.76;100022.13;10286859;28;20068;-69
2023/06/20 06:31:37;;;;;;;3.95;1.60;;;;;;;23.90;50.46;99996.97;10296952;28;20109;-69
2023/06/20 06:36:38;;;;;;;5.05;1.50;;;;;;;24.18;50.67;100043.78;10293155;28;20054;-69
2023/06/20 06:41:39;;;;;;;12.20;2.00;;;;;;;23.65;50.65;99965.91;10289636;28;20045;-70
2023/06/20 06:46:40;;;;;;;5.07;1.80;;;;;;;23.98;50.57;100041.78;10292934;28;20039;-69
2023/06/20 06:51:40;;;;;;;8.20;1.52;;;;;;;23.97;50.64;100029.31;10296124;28;20086;-69
2023/06/20 06:56:41;;;;;;;5.45;1.70;;;;;;;24.07;51.40;100046.44;10296577;28;20050;-67
2023/06/20 07:01:42;;;;;;;7.95;1.90;;;;;;;24.10;49.57;100053.22;10297041;28;20486;-67
2023/06/20 07:06:43;;;;;;;16.75;2.90;;;;;;;24.33;50.28;100030.25;10295307;28;20051;-69
2023/06/20 07:11:44;;;;;;;11.93;2.17;;;;;;;24.87;48.59;100040.72;10295676;28;20054;-68
2023/06/20 07:16:45;;;;;;;6.15;1.88;;;;;;;24.85;47.45;100004.03;10295944;28;20436;-68
2023/06/20 07:21:46;;;;;;;7.82;2.10;;;;;;;25.42;47.45;100036.38;10295764;28;20093;-68
2023/06/20 07:26:47;;;;;;;12.57;2.10;;;;;;;25.83;47.08;100030.09;10296068;28;20058;-68
2023/06/20 07:31:48;;;;;;;9.80;1.90;;;;;;;26.29;47.13;100048.97;10295415;28;20494;-68
2023/06/20 07:36:48;;;;;;;3.03;1.40;;;;;;;26.29;46.16;100049.78;10294423;28;20053;-68
2023/06/20 07:41:49;;;;;;;6.82;1.70;;;;;;;25.32;46.37;99990.19;10294521;28;20066;-68
2023/06/20 07:46:50;;;;;;;7.55;1.58;;;;;;;25.81;46.62;100041.22;10294838;28;20407;-68
2023/06/20 07:51:51;;;;;;;10.95;2.10;;;;;;;26.05;45.14;100035.19;10294211;28;20054;-69
2023/06/20 07:56:52;;;;;;;9.23;1.60;;;;;;;26.04;45.19;100030.84;10294499;28;20050;-68
2023/06/20 08:01:52;;;;;;;20.27;2.85;;;;;;;26.68;44.87;100023.72;10289820;28;20039;-70
2023/06/20 08:06:53;;;;;;;14.43;1.85;;;;;;;26.81;43.65;100018.44;10294020;28;20050;-68
2023/06/20 08:11:54;;;;;;;6.50;2.08;;;;;;;26.41;43.27;100020.31;10292745;28;20097;-68
2023/06/20 08:16:54;;;;;;;5.05;1.95;;;;;;;26.40;43.97;99988.72;10294063;28;20042;-68
2023/06/20 08:21:55;;;;;;;8.80;1.80;;;;;;;26.50;43.42;99996.03;10293368;28;20482;-71
2023/06/20 08:26:56;;;;;;;7.35;2.15;;;;;;;26.33;41.31;99947.38;10290113;28;20407;-69
2023/06/20 08:31:56;;;;;;;70.43;5.53;;;;;;;27.07;41.77;100010.06;10274249;28;20059;-70
2023/06/20 08:36:57;;;;;;;9.88;2.17;;;;;;;27.38;40.69;100001.66;10253267;28;20039;-68
2023/06/20 08:41:58;;;;;;;7.60;2.03;;;;;;;27.75;39.93;100009.16;10257040;28;20055;-68
2023/06/20 08:46:59;;;;;;;8.32;1.70;;;;;;;27.39;39.50;99938.59;10291801;28;20053;-68
2023/06/20 08:52:07;;;;;;;5.47;1.83;;;;;;;27.37;38.22;99975.44;10292354;28;20046;-68
2023/06/20 08:57:08;;;;;;;22.40;2.30;;;;;;;27.49;40.03;100000.41;10292944;28;20058;-69
2023/06/20 09:02:11;;;;;;;12.23;1.98;;;;;;;27.05;42.24;99996.72;10291383;28;20058;-69
2023/06/20 09:07:19;;;;;;;3.40;1.58;;;;;;;26.88;40.49;99969.06;10290948;28;20057;-69
2023/06/20 09:12:20;;;;;;;5.07;1.60;;;;;;;26.66;40.58;99988.59;10291707;28;20047;-69
2023/06/20 09:17:22;;;;;;;3.35;1.60;;;;;;;26.36;41.69;99967.78;10292286;28;20093;-68
2023/06/20 09:22:25;;;;;;;6.43;1.77;;;;;;;26.17;42.04;100006.56;10291907;28;20383;-69
2023/06/20 09:27:26;;;;;;;15.27;1.80;;;;;;;25.89;42.35;99986.25;10252667;28;20055;-69
2023/06/20 09:32:26;;;;;;;11.43;2.13;;;;;;;25.84;41.27;99980.81;10251372;28;20046;-69
2023/06/20 09:37:36;;;;;;;6.63;1.80;;;;;;;25.91;40.24;100003.13;10251123;28;20043;-68
2023/06/20 09:42:38;;;;;;;10.45;2.55;;;;;;;25.90;41.25;100004.19;10251471;28;20222;-68
2023/06/20 09:47:41;;;;;;;10.50;1.60;;;;;;;25.91;41.68;100008.56;10282362;28;20541;-69
2023/06/20 09:53:19;;;;;;;9.47;2.70;;;;;;;26.02;39.84;100016.69;10289807;28;20058;-69
2023/06/20 09:58:21;;;;;;;21.70;2.58;;;;;;;25.42;40.89;99987.44;10289585;28;20286;-68
2023/06/20 10:03:22;;;;;;;7.63;1.67;;;;;;;25.38;39.91;100005.41;10295390;28;20050;-68
2023/06/20 10:08:24;;;;;;;4.40;1.60;;;;;;;24.94;40.10;100014.09;10296749;28;20173;-68
2023/06/20 10:13:26;;;;;;;5.72;1.52;;;;;;;24.88;40.93;100009.75;10298222;28;20043;-68
2023/06/20 10:18:32;;;;;;;15.68;2.13;;;;;;;24.96;42.17;100006.50;10298515;28;20505;-68
2023/06/20 10:23:36;;;;;;;7.07;1.50;;;;;;;25.02;42.56;100016.28;10297453;28;20039;-69
2023/06/20 10:28:39;;;;;;;10.55;1.90;;;;;;;25.01;42.29;100003.78;10298180;28;20042;-68
2023/06/20 10:33:45;;;;;;;6.43;1.60;;;;;;;24.51;43.11;99936.66;10296865;28;20038;-69
2023/06/20 10:38:51;;;;;;;5.43;1.63;;;;;;;24.84;42.78;100008.66;10297459;28;20049;-68
2023/06/20 10:43:53;;;;;;;7.15;2.00;;;;;;;24.66;43.96;99993.72;10296879;28;20499;-68
2023/06/20 10:48:54;;;;;;;7.90;1.90;;;;;;;24.45;43.83;99971.13;10297127;28;20051;-68
2023/06/20 10:54:09;;;;;;;5.68;1.75;;;;;;;24.39;43.89;99980.31;10296418;28;20045;-69
2023/06/20 10:59:11;;;;;;;7.00;1.60;;;;;;;24.35;43.26;100001.78;10297070;28;20066;-69
2023/06/20 11:04:16;;;;;;;4.93;1.75;;;;;;;24.28;44.57;99984.09;10295765;28;20512;-70
2023/06/20 11:09:23;;;;;;;20.50;2.10;;;;;;;23.92;44.58;99948.69;10296755;28;20054;-68
2023/06/20 11:14:24;;;;;;;5.68;1.50;;;;;;;24.24;43.91;100002.00;10294970;28;20052;-69
2023/06/20 11:19:27;;;;;;;8.98;2.50;;;;;;;24.25;45.30;99982.72;10296608;28;20031;-69
2023/06/20 11:24:30;;;;;;;29.23;2.78;;;;;;;24.44;45.53;99983.09;10295261;28;20107;-69
2023/06/20 11:29:36;;;;;;;6.47;2.00;;;;;;;24.49;44.50;99965.97;10295362;28;20046;-69
2023/06/20 11:34:54;;;;;;;5.97;1.65;;;;;;;24.39;45.73;99907.03;10294742;28;20118;-69
2023/06/20 11:39:55;;;;;;;6.78;1.92;;;;;;;24.87;44.57;99969.28;10294565;28;20049;-68
2023/06/20 11:45:10;;;;;;;10.40;1.80;;;;;;;24.98;42.74;99973.63;10295008;28;20133;-68
2023/06/20 11:50:37;;;;;;;4.60;1.80;;;;;;;25.30;43.68;99983.41;10294419;28;20053;-69
2023/06/20 11:55:48;;;;;;;8.57;3.20;;;;;;;25.52;44.83;99981.19;10282681;28;20061;-68
2023/06/20 12:01:14;;;;;;;40.60;4.72;;;;;;;25.79;44.48;99944.66;10277214;28;20495;-70
2023/06/20 12:06:32;;;;;;;7.93;3.28;;;;;;;25.81;44.99;99966.94;10274771;28;20047;-70
2023/06/20 12:11:33;;;;;;;7.38;2.17;;;;;;;25.73;45.10;99966.44;10271312;28;20043;-70
2023/06/20 12:16:33;;;;;;;6.15;1.75;;;;;;;25.42;44.40;99921.38;10272534;28;20415;-69
2023/06/20 12:21:38;;;;;;;11.95;2.38;;;;;;;25.64;45.00;99978.16;10275771;28;20039;-70
2023/06/20 12:26:39;;;;;;;10.40;2.35;;;;;;;25.76;44.52;99951.47;10283746;28;20035;-70
2023/06/20 12:31:40;;;;;;;5.88;1.92;;;;;;;25.87;42.85;99953.06;10287069;28;20554;-70
2023/06/20 12:36:41;;;;;;;6.00;1.67;;;;;;;25.78;44.04;99971.03;10276149;28;20089;-69
2023/06/20 12:41:41;;;;;;;4.53;1.85;;;;;;;25.68;44.72;99969.16;10273546;28;20054;-70
2023/06/20 12:46:42;;;;;;;7.30;2.00;;;;;;;24.98;44.33;99905.69;10270513;28;20086;-69
2023/06/20 12:51:43;;;;;;;8.88;1.70;;;;;;;24.80;44.23;99875.28;10279467;28;20053;-67
2023/06/20 12:56:45;;;;;;;11.82;2.50;;;;;;;25.56;44.70;99960.50;10273395;28;20133;-68
2023/06/20 13:01:45;;;;;;;13.77;2.63;;;;;;;25.96;43.83;99956.00;10282984;28;20043;-69
2023/06/20 13:06:46;;;;;;;7.18;2.15;;;;;;;26.29;42.90;99924.50;10290101;28;20039;-69
2023/06/20 13:11:47;;;;;;;12.65;2.25;;;;;;;26.80;42.70;99945.13;10292805;28;20415;-70
2023/06/20 13:16:49;;;;;;;6.35;1.88;;;;;;;26.60;42.20;99875.31;10289105;28;20039;-69
2023/06/20 13:21:50;;;;;;;7.20;1.90;;;;;;;27.23;41.56;99937.97;10288717;28;20039;-68
2023/06/20 13:26:50;;;;;;;5.90;1.92;;;;;;;27.32;40.82;99940.88;10291128;28;20043;-68
2023/06/20 13:31:52;;;;;;;23.83;17.40;;;;;;;27.09;41.54;99890.63;10291321;28;20051;-68
2023/06/20 13:36:54;;;;;;;18.33;4.05;;;;;;;26.86;41.71;99860.34;10294633;28;20117;-69
2023/06/20 13:41:56;;;;;;;10.98;2.65;;;;;;;27.21;42.13;99942.06;10299250;28;20034;-68
2023/06/20 13:46:57;;;;;;;4.30;1.88;;;;;;;27.27;42.17;99952.63;10298767;28;20046;-68
2023/06/20 13:51:58;;;;;;;20.45;2.67;;;;;;;26.84;42.06;99875.34;10298420;28;20054;-68
2023/06/20 13:56:59;;;;;;;7.70;1.98;;;;;;;26.89;43.08;99939.91;10299485;28;20096;-68
2023/06/20 14:02:00;;;;;;;6.38;2.40;;;;;;;26.49;44.32;99931.78;10298788;28;20121;-68
2023/06/20 14:07:00;;;;;;;7.30;2.95;;;;;;;26.16;45.03;99941.50;10297959;28;20477;-68
2023/06/20 14:12:02;;;;;;;6.55;2.63;;;;;;;25.94;44.74;99945.41;10297750;28;20571;-69
2023/06/20 14:17:04;;;;;;;10.93;2.70;;;;;;;26.15;44.84;99945.31;10298606;28;20117;-69
2023/06/20 14:22:05;;;;;;;6.25;2.58;;;;;;;26.37;43.60;99948.44;10298032;28;20035;-68
2023/06/20 14:27:06;;;;;;;19.40;3.30;;;;;;;25.91;43.62;99858.91;10298288;28;20049;-68
2023/06/20 14:32:06;;;;;;;4.95;1.98;;;;;;;26.21;43.76;99944.19;10296596;28;20101;-68
2023/06/20 14:37:07;;;;;;;5.43;2.10;;;;;;;26.14;44.70;99951.84;10296697;28;20042;-68
2023/06/20 14:42:08;;;;;;;4.47;1.88;;;;;;;25.67;44.93;99906.88;10296895;28;20062;-68
2023/06/20 14:47:09;;;;;;;4.43;2.00;;;;;;;25.52;46.04;99948.56;10297258;28;20047;-69
2023/06/20 14:52:10;;;;;;;4.35;2.05;;;;;;;25.47;46.36;99954.81;10294911;28;20519;-69
2023/06/20 14:57:11;;;;;;;7.18;1.70;;;;;;;25.64;47.03;99972.72;10290145;28;20093;-68
2023/06/20 15:02:12;;;;;;;6.53;2.00;;;;;;;25.69;46.94;99989.81;10290058;28;20046;-69
2023/06/20 15:07:13;;;;;;;3.97;1.73;;;;;;;25.25;47.16;99962.47;10290207;28;20039;-69
2023/06/20 15:12:14;;;;;;;5.68;2.08;;;;;;;25.23;47.64;99989.94;10289919;28;20050;-69
2023/06/20 15:17:15;;;;;;;8.13;2.50;;;;;;;25.03;47.65;100009.75;10295339;28;20038;-68
2023/06/20 15:22:16;;;;;;;7.55;2.45;;;;;;;24.81;47.82;100003.78;10295514;28;20043;-68
2023/06/20 15:27:17;;;;;;;5.70;1.65;;;;;;;24.55;47.61;99979.28;10293664;28;20031;-68
2023/06/20 15:32:18;;;;;;;8.98;2.30;;;;;;;24.67;47.62;100014.34;10295800;28;20042;-68
2023/06/20 15:37:19;;;;;;;5.20;1.52;;;;;;;24.69;47.30;100006.75;10294718;28;20065;-68
2023/06/20 15:42:20;;;;;;;6.78;1.70;;;;;;;24.60;47.54;100008.38;10294978;28;20102;-69
2023/06/20 15:47:21;;;;;;;6.00;1.90;;;;;;;24.04;46.84;99946.56;10293618;28;20081;-68
2023/06/20 15:52:21;;;;;;;5.25;2.08;;;;;;;24.12;47.53;100003.03;10294510;28;20054;-68
2023/06/20 15:57:22;;;;;;;4.55;1.63;;;;;;;24.10;47.56;100024.19;10294012;28;20035;-68
2023/06/20 16:02:24;;;;;;;6.40;1.77;;;;;;;23.81;48.06;100015.69;10292956;28;20043;-69
2023/06/20 16:07:25;;;;;;;6.28;1.77;;;;;;;23.49;48.20;99990.50;10294512;28;20526;-69
2023/06/20 16:12:26;;;;;;;5.20;1.70;;;;;;;23.51;48.43;100021.69;10293061;28;20042;-68
2023/06/20 16:17:26;;;;;;;7.10;2.42;;;;;;;23.33;48.81;100022.91;10292954;28;20039;-69
2023/06/20 16:22:27;;;;;;;35.60;2.60;;;;;;;23.03;49.26;100007.22;10292693;28;20425;-69
2023/06/20 16:27:28;;;;;;;5.05;1.98;;;;;;;22.91;49.94;100020.09;10292747;28;20042;-68
2023/06/20 16:32:29;;;;;;;3.97;2.00;;;;;;;22.71;50.38;100026.16;10292463;28;20054;-69
2023/06/20 16:37:29;;;;;;;4.43;1.80;;;;;;;22.50;51.08;100025.16;10286829;28;20035;-71
2023/06/20 16:42:31;;;;;;;9.57;2.05;;;;;;;21.85;51.84;99978.09;10286840;28;20059;-69
2023/06/20 16:47:31;;;;;;;5.47;1.88;;;;;;;21.86;52.96;100021.09;10293101;28;20043;-70
2023/06/20 16:52:32;;;;;;;8.48;2.28;;;;;;;21.79;53.45;100027.75;10281649;28;20042;-69
2023/06/20 16:57:33;;;;;;;5.88;2.03;;;;;;;21.56;54.17;100043.09;10277137;28;20126;-70
2023/06/20 17:02:34;;;;;;;8.18;2.53;;;;;;;21.39;55.32;100036.94;10289738;28;20113;-69
2023/06/20 17:07:38;;;;;;;12.48;1.80;;;;;;;21.26;56.77;100043.41;10290242;28;20069;-71
2023/06/20 17:12:39;;;;;;;8.70;2.03;;;;;;;21.05;55.93;100041.47;10285160;28;20471;-69
2023/06/20 17:17:40;;;;;;;10.10;2.10;;;;;;;20.81;56.73;100033.47;10290460;28;20081;-68
2023/06/20 17:22:44;;;;;;;9.05;2.13;;;;;;;20.56;58.18;100044.66;10291632;28;20133;-68
2023/06/20 17:27:44;;;;;;;9.43;2.50;;;;;;;20.52;57.96;100051.56;10287590;28;20554;-68
2023/06/20 17:32:45;;;;;;;10.45;2.10;;;;;;;19.92;58.33;100001.53;10274969;28;20116;-70
2023/06/20 17:37:46;;;;;;;4.15;2.00;;;;;;;19.82;58.41;100002.13;10277265;28;20038;-67
2023/06/20 17:42:47;;;;;;;4.78;2.17;;;;;;;19.74;59.79;100017.84;10275880;28;20427;-71
2023/06/20 17:47:48;;;;;;;8.30;2.42;;;;;;;19.85;60.77;100070.94;10276998;28;20593;-71
2023/06/20 17:52:49;;;;;;;4.82;1.95;;;;;;;19.51;60.95;100040.22;10274323;28;20054;-72
2023/06/20 17:57:50;;;;;;;8.77;2.30;;;;;;;19.56;60.95;100089.66;10278222;28;20392;-68
2023/06/20 18:02:51;;;;;;;10.98;2.65;;;;;;;19.32;61.80;100066.41;10270906;28;20514;-69
2023/06/20 18:07:52;;;;;;;6.57;2.65;;;;;;;19.32;61.55;100096.88;10272366;28;20105;-70
2023/06/20 18:12:55;;;;;;;6.25;2.53;;;;;;;19.18;62.35;100091.94;10274491;28;20093;-70
2023/06/20 18:17:56;;;;;;;5.23;2.50;;;;;;;19.19;62.32;100096.25;10268244;28;20183;-70
2023/06/20 18:22:57;;;;;;;5.90;2.70;;;;;;;18.84;62.45;100076.25;10272033;28;20038;-70
2023/06/20 18:27:58;;;;;;;4.72;2.30;;;;;;;18.35;62.90;100018.13;10280849;28;20495;-70
2023/06/20 18:32:59;;;;;;;5.88;2.30;;;;;;;18.83;63.00;100108.78;10285323;28;20051;-70
2023/06/20 18:38:00;;;;;;;4.75;2.42;;;;;;;18.56;63.88;100087.59;10278402;28;20384;-70
2023/06/20 18:43:02;;;;;;;6.15;2.67;;;;;;;18.55;64.32;100107.47;10276583;28;20062;-69
2023/06/20 18:48:03;;;;;;;8.18;2.92;;;;;;;18.48;65.09;100115.59;10280154;28;20045;-71
2023/06/20 18:53:08;;;;;;;9.25;2.80;;;;;;;18.34;66.07;100111.44;10275098;28;20043;-69
2023/06/20 18:58:09;;;;;;;6.28;3.08;;;;;;;17.86;65.69;100044.13;10284382;28;20035;-70
2023/06/20 19:03:15;;;;;;;8.35;2.92;;;;;;;18.24;66.36;100119.19;10295818;28;20046;-69
2023/06/20 19:08:16;;;;;;;5.70;2.30;;;;;;;18.20;66.64;100118.00;10295203;28;20093;-72
2023/06/20 19:13:17;;;;;;;5.00;2.55;;;;;;;18.12;67.08;100115.59;10296025;28;20070;-72
2023/06/20 19:18:19;;;;;;;7.32;2.97;;;;;;;17.95;67.80;100110.00;10295565;28;20387;-71
2023/06/20 19:23:20;;;;;;;5.15;2.92;;;;;;;17.97;68.63;100115.97;10296020;28;20038;-71
2023/06/20 19:28:21;;;;;;;10.15;2.83;;;;;;;17.89;69.26;100102.81;10295140;28;20047;-70
2023/06/20 19:33:22;;;;;;;18.33;4.20;;;;;;;17.73;69.87;100096.13;10293382;28;20046;-70
2023/06/20 19:38:25;;;;;;;7.55;2.95;;;;;;;17.58;70.81;100110.69;10294472;28;20038;-72
2023/06/20 19:43:26;;;;;;;8.07;2.88;;;;;;;17.53;70.80;100112.41;10293938;28;20054;-72
2023/06/20 19:48:27;;;;;;;11.18;3.33;;;;;;;17.59;71.46;100133.03;10295104;28;20041;-70
2023/06/20 19:53:29;;;;;;;9.00;3.40;;;;;;;17.45;71.98;100120.75;10294043;28;20053;-70
2023/06/20 19:58:31;;;;;;;7.82;3.30;;;;;;;17.41;72.42;100112.31;10294062;28;20034;-70
2023/06/20 20:03:32;;;;;;;6.88;3.42;;;;;;;16.94;73.57;100054.63;10293713;28;20042;-70
2023/06/20 20:08:33;;;;;;;5.18;3.13;;;;;;;17.23;73.96;100134.53;10292628;28;20410;-70
2023/06/20 20:13:34;;;;;;;11.27;3.70;;;;;;;16.98;74.60;100109.50;10293842;28;20047;-70
2023/06/20 20:18:35;;;;;;;8.48;3.60;;;;;;;16.95;74.85;100112.59;10293296;28;20049;-70
2023/06/20 20:23:36;;;;;;;6.30;3.13;;;;;;;16.72;75.52;100086.28;10293079;28;20130;-70
2023/06/20 20:28:37;;;;;;;10.70;3.50;;;;;;;16.88;76.08;100131.44;10293627;28;20042;-71
2023/06/20 20:33:38;;;;;;;13.57;4.68;;;;;;;16.74;76.74;100111.84;10293139;28;20049;-70
2023/06/20 20:38:39;;;;;;;12.18;5.38;;;;;;;16.76;77.37;100133.97;10293007;28;20513;-70
2023/06/20 20:43:40;;;;;;;13.13;5.25;;;;;;;16.52;77.90;100105.97;10292807;28;20101;-70
2023/06/20 20:48:41;;;;;;;13.13;6.05;;;;;;;16.58;78.48;100128.44;10292483;28;20580;-70
2023/06/20 20:53:41;;;;;;;14.77;6.53;;;;;;;16.50;78.79;100129.50;10292683;28;20185;-70
2023/06/20 20:58:45;;;;;;;13.35;6.60;;;;;;;16.47;79.49;100119.19;10292831;28;20066;-70
2023/06/20 21:03:46;;;;;;;25.10;7.72;;;;;;;16.51;79.62;100116.91;10291067;28;20039;-70
2023/06/20 21:08:46;;;;;;;33.45;9.13;;;;;;;16.51;79.88;100120.44;10292185;28;20045;-70
2023/06/20 21:13:47;;;;;;;27.25;7.68;;;;;;;16.37;80.00;100127.69;10291521;28;20403;-70
2023/06/20 21:18:48;;;;;;;30.25;8.13;;;;;;;16.05;80.35;100115.19;10291811;28;20126;-70
2023/06/20 21:23:49;;;;;;;24.98;6.65;;;;;;;15.28;81.25;99995.16;10289948;28;20410;-70
2023/06/20 21:28:50;;;;;;;23.60;6.07;;;;;;;15.44;82.10;99995.78;10290856;28;20049;-70
2023/06/20 21:33:50;;;;;;;26.08;6.93;;;;;;;16.26;82.38;100106.88;10291688;28;20542;-71
2023/06/20 21:38:51;;;;;;;20.58;6.20;;;;;;;15.78;81.98;100053.63;10291538;28;20414;-70
2023/06/20 21:43:52;;;;;;;19.42;6.68;;;;;;;16.04;82.03;100124.28;10290432;28;20059;-70
2023/06/20 21:48:53;;;;;;;15.90;6.32;;;;;;;15.84;83.05;100127.78;10290904;28;20086;-70
2023/06/20 21:53:53;;;;;;;35.60;6.40;;;;;;;15.78;83.52;100128.63;10290993;28;20046;-70
2023/06/20 21:58:54;;;;;;;13.48;5.53;;;;;;;15.57;83.76;100110.88;10295192;28;20146;-70
2023/06/20 22:03:55;;;;;;;11.38;5.40;;;;;;;15.13;84.28;100047.25;10298765;28;20122;-70
2023/06/20 22:08:56;;;;;;;10.60;5.10;;;;;;;15.53;84.57;100126.53;10298138;28;20097;-70
2023/06/20 22:13:56;;;;;;;9.68;4.90;;;;;;;14.61;84.89;99998.84;10297343;28;20046;-70
2023/06/20 22:18:57;;;;;;;9.73;4.63;;;;;;;15.01;85.85;100068.44;10297759;28;20419;-70
2023/06/20 22:23:58;;;;;;;15.18;4.72;;;;;;;15.29;86.26;100121.78;10297422;28;20573;-70
2023/06/20 22:28:59;;;;;;;8.20;3.92;;;;;;;14.92;86.30;100062.44;10298383;28;20047;-70
2023/06/20 22:33:59;;;;;;;7.95;4.22;;;;;;;14.67;86.57;100040.00;10296991;28;20125;-71
2023/06/20 22:39:03;;;;;;;12.88;3.60;;;;;;;14.33;87.34;99988.28;10296932;28;20487;-70
2023/06/20 22:44:04;;;;;;;7.30;3.65;;;;;;;14.88;87.79;100074.59;10297130;28;20055;-71
2023/06/20 22:49:05;;;;;;;5.45;3.40;;;;;;;15.12;87.67;100121.34;10297806;28;20193;-70
2023/06/20 22:54:07;;;;;;;8.02;3.50;;;;;;;15.00;87.84;100131.00;10296567;28;20489;-70
2023/06/20 22:59:08;;;;;;;8.77;3.78;;;;;;;14.93;88.42;100128.31;10296948;28;20090;-71
2023/06/20 23:04:09;;;;;;;14.00;3.67;;;;;;;14.79;88.51;100111.38;10296744;28;20074;-71
2023/06/20 23:09:09;;;;;;;5.90;3.35;;;;;;;14.61;88.45;100073.69;10294976;28;20063;-71
2023/06/20 23:14:11;;;;;;;9.43;3.45;;;;;;;14.09;89.03;99981.59;10295554;28;20047;-71